Time;durP1;ratioP1;P1;durP2;ratioP2;P2;SDS_P1;SDS_P2;PMS_P1;PMS_P2;Temp;Humidity;BMP_temperature;BMP_pressure;BME280_temperature;BME280_humidity;BME280_pressure;Samples;Min_cycle;Max_cycle;Signal;HPM_P1;HPM_P2
2022/04/06 00:01:41;;;;;;;22.23;8.20;;;;;;;;;;4961194;28;20844;-80
2022/04/06 00:04:06;;;;;;;19.55;8.07;;;;;;;;;;4976259;28;20058;-83
2022/04/06 00:06:31;;;;;;;20.80;7.22;;;;;;;;;;4947186;28;20031;-83
2022/04/06 00:08:57;;;;;;;19.65;6.90;;;;;;;;;;4947913;28;20798;-80
2022/04/06 00:11:23;;;;;;;23.15;7.50;;;;;;;;;;4944140;28;20077;-81
2022/04/06 00:13:49;;;;;;;19.17;7.72;;;;;;;;;;4948008;28;20030;-80
2022/04/06 00:16:15;;;;;;;13.70;7.10;;;;;;;;;;4945004;28;20038;-82
2022/04/06 00:18:41;;;;;;;15.45;7.07;;;;;;;;;;4942095;28;20038;-82
2022/04/06 00:21:06;;;;;;;19.08;7.50;;;;;;;;;;4976757;28;20395;-82
2022/04/06 00:23:31;;;;;;;16.25;7.05;;;;;;;;;;4942950;28;20081;-80
2022/04/06 00:25:57;;;;;;;18.83;7.95;;;;;;;;;;4958917;28;20476;-79
2022/04/06 00:28:22;;;;;;;17.73;8.10;;;;;;;;;;4946104;28;20039;-82
2022/04/06 00:30:48;;;;;;;15.65;7.93;;;;;;;;;;4941060;28;20026;-80
2022/04/06 00:33:13;;;;;;;16.38;8.10;;;;;;;;;;4947296;28;20035;-80
2022/04/06 00:35:38;;;;;;;22.15;7.95;;;;;;;;;;4975080;28;20038;-82
2022/04/06 00:38:05;;;;;;;17.88;8.27;;;;;;;;;;4973844;28;20114;-80
2022/04/06 00:40:33;;;;;;;24.85;8.68;;;;;;;;;;4942649;28;20031;-83
2022/04/06 00:42:59;;;;;;;17.77;7.28;;;;;;;;;;4944676;28;20027;-81
2022/04/06 00:45:24;;;;;;;20.65;7.22;;;;;;;;;;4945323;28;20039;-82
2022/04/06 00:47:51;;;;;;;15.65;7.00;;;;;;;;;;4943016;28;20168;-81
2022/04/06 00:50:18;;;;;;;17.40;7.35;;;;;;;;;;4942216;28;20031;-80
2022/04/06 00:52:43;;;;;;;20.42;7.57;;;;;;;;;;4944575;28;20090;-81
2022/04/06 00:55:11;;;;;;;17.73;7.57;;;;;;;;;;4946941;28;20027;-80
2022/04/06 00:57:37;;;;;;;15.52;7.57;;;;;;;;;;4947392;28;20029;-80
2022/04/06 01:00:05;;;;;;;14.98;6.88;;;;;;;;;;4974414;28;20439;-83
2022/04/06 01:02:30;;;;;;;15.88;6.70;;;;;;;;;;4974500;28;20082;-81
2022/04/06 01:04:56;;;;;;;18.40;7.15;;;;;;;;;;4947398;28;20063;-82
2022/04/06 01:07:22;;;;;;;21.35;6.60;;;;;;;;;;4941350;28;20550;-82
2022/04/06 01:09:48;;;;;;;17.73;7.03;;;;;;;;;;4943142;28;20079;-82
2022/04/06 01:12:13;;;;;;;17.73;6.57;;;;;;;;;;4940903;28;20135;-82
2022/04/06 01:14:39;;;;;;;17.52;6.50;;;;;;;;;;4943495;28;20484;-82
2022/04/06 01:17:07;;;;;;;19.98;6.78;;;;;;;;;;4944391;28;20526;-82
2022/04/06 01:19:44;;;;;;;16.77;6.53;;;;;;;;;;4947831;28;20027;-81
2022/04/06 01:22:12;;;;;;;16.80;6.20;;;;;;;;;;4946075;28;20035;-82
2022/04/06 01:24:38;;;;;;;15.00;6.13;;;;;;;;;;4943921;28;20515;-81
2022/04/06 01:27:04;;;;;;;16.25;6.13;;;;;;;;;;4957304;28;20111;-80
2022/04/06 01:29:30;;;;;;;16.88;6.35;;;;;;;;;;4972768;28;20076;-80
2022/04/06 01:31:56;;;;;;;19.65;6.32;;;;;;;;;;4947399;28;20766;-81
2022/04/06 01:34:22;;;;;;;15.55;6.10;;;;;;;;;;4943568;29;20031;-80
2022/04/06 01:36:47;;;;;;;16.13;6.15;;;;;;;;;;4977168;28;20038;-82
2022/04/06 01:39:12;;;;;;;15.82;6.03;;;;;;;;;;4943382;28;20034;-81
2022/04/06 01:41:38;;;;;;;13.70;5.55;;;;;;;;;;4945105;28;20054;-81
2022/04/06 01:44:05;;;;;;;17.75;6.43;;;;;;;;;;4942697;28;20121;-82
2022/04/06 01:46:32;;;;;;;15.45;5.25;;;;;;;;;;4940855;28;20031;-82
2022/04/06 01:54:26;;;;;;;20.17;5.90;;;;;;;;;;4945821;28;20425;-82
2022/04/06 01:56:51;;;;;;;13.98;5.13;;;;;;;;;;4945809;28;20035;-82
2022/04/06 01:59:16;;;;;;;14.25;5.20;;;;;;;;;;4943550;28;20037;-82
2022/04/06 02:01:43;;;;;;;17.02;6.28;;;;;;;;;;4960732;28;20462;-82
2022/04/06 02:04:15;;;;;;;17.77;5.95;;;;;;;;;;4968671;28;20031;-82
2022/04/06 02:06:41;;;;;;;10.45;4.63;;;;;;;;;;4942784;28;20041;-82
2022/04/06 02:09:08;;;;;;;13.98;5.38;;;;;;;;;;4974367;28;21427;-81
2022/04/06 02:11:34;;;;;;;11.32;5.18;;;;;;;;;;4944417;28;20035;-82
2022/04/06 02:14:00;;;;;;;13.75;4.95;;;;;;;;;;4944174;28;20492;-82
2022/04/06 02:16:25;;;;;;;16.00;4.53;;;;;;;;;;4943234;28;20035;-82
2022/04/06 02:18:50;;;;;;;13.95;5.95;;;;;;;;;;4943922;28;20502;-79
2022/04/06 02:21:15;;;;;;;15.25;5.13;;;;;;;;;;4942016;28;20078;-80
2022/04/06 02:23:41;;;;;;;14.85;4.72;;;;;;;;;;4944925;28;20038;-82
2022/04/06 02:26:06;;;;;;;13.52;4.53;;;;;;;;;;4947414;28;20031;-80
2022/04/06 02:28:32;;;;;;;13.05;4.80;;;;;;;;;;4944902;28;20039;-82
2022/04/06 02:30:57;;;;;;;14.95;5.03;;;;;;;;;;4942946;28;20027;-82
2022/04/06 02:33:22;;;;;;;14.07;4.88;;;;;;;;;;4941087;28;20050;-80
2022/04/06 02:35:47;;;;;;;11.13;4.28;;;;;;;;;;4942295;29;20082;-82
2022/04/06 02:38:13;;;;;;;12.38;4.38;;;;;;;;;;4944180;28;20137;-82
2022/04/06 02:40:38;;;;;;;13.20;4.25;;;;;;;;;;4939878;28;20036;-79
2022/04/06 02:43:03;;;;;;;13.73;4.03;;;;;;;;;;4944308;28;20477;-80
2022/04/06 02:45:29;;;;;;;12.55;4.15;;;;;;;;;;4945216;28;20034;-80
2022/04/06 02:47:54;;;;;;;15.07;4.50;;;;;;;;;;4945472;28;20031;-81
2022/04/06 02:50:21;;;;;;;12.52;4.00;;;;;;;;;;4958332;28;20035;-80
2022/04/06 02:52:46;;;;;;;11.70;3.90;;;;;;;;;;4943216;28;20034;-82
2022/04/06 02:55:12;;;;;;;12.13;3.90;;;;;;;;;;4949258;28;20031;-82
2022/04/06 02:57:39;;;;;;;11.82;4.20;;;;;;;;;;4944911;28;20033;-79
2022/04/06 03:00:05;;;;;;;11.85;3.38;;;;;;;;;;4946097;28;20035;-81
2022/04/06 03:02:30;;;;;;;7.88;3.15;;;;;;;;;;4947533;28;20045;-82
2022/04/06 03:04:56;;;;;;;11.43;3.53;;;;;;;;;;4960667;28;20122;-80
2022/04/06 03:07:21;;;;;;;14.60;3.33;;;;;;;;;;4945591;28;20046;-81
2022/04/06 03:09:47;;;;;;;10.75;3.55;;;;;;;;;;4945615;28;20051;-81
2022/04/06 03:12:12;;;;;;;10.50;3.17;;;;;;;;;;4945564;28;20046;-79
2022/04/06 03:14:37;;;;;;;10.98;3.45;;;;;;;;;;4943529;28;20109;-80
2022/04/06 03:17:03;;;;;;;10.85;3.47;;;;;;;;;;4948832;28;20165;-82
2022/04/06 03:19:29;;;;;;;9.70;3.78;;;;;;;;;;4944389;28;20069;-81
2022/04/06 03:21:54;;;;;;;8.38;3.28;;;;;;;;;;4945431;28;20035;-82
2022/04/06 03:24:20;;;;;;;12.45;3.38;;;;;;;;;;4948415;29;20039;-81
2022/04/06 03:26:45;;;;;;;8.90;2.90;;;;;;;;;;4949980;28;20023;-81
2022/04/06 03:29:10;;;;;;;9.07;3.15;;;;;;;;;;4944317;28;20625;-82
2022/04/06 03:31:37;;;;;;;8.88;3.10;;;;;;;;;;4947154;28;20035;-79
2022/04/06 03:34:03;;;;;;;10.20;2.90;;;;;;;;;;4946637;28;20490;-80
2022/04/06 03:36:28;;;;;;;6.43;2.47;;;;;;;;;;4950324;28;20031;-82
2022/04/06 03:38:53;;;;;;;8.07;3.08;;;;;;;;;;4946008;28;20469;-81
2022/04/06 03:41:19;;;;;;;10.82;3.72;;;;;;;;;;4943835;28;20023;-80
2022/04/06 03:43:44;;;;;;;9.75;3.53;;;;;;;;;;4943517;28;20700;-80
2022/04/06 03:46:09;;;;;;;7.35;2.80;;;;;;;;;;4943309;28;20395;-82
2022/04/06 03:48:35;;;;;;;9.60;2.78;;;;;;;;;;4942551;28;20062;-82
2022/04/06 03:51:00;;;;;;;7.47;2.90;;;;;;;;;;4945315;28;20489;-82
2022/04/06 03:53:26;;;;;;;8.13;2.45;;;;;;;;;;4946728;28;20039;-82
2022/04/06 03:55:51;;;;;;;8.60;2.45;;;;;;;;;;4945114;28;20027;-82
2022/04/06 03:58:17;;;;;;;8.77;2.90;;;;;;;;;;4944318;28;20036;-81
2022/04/06 04:00:42;;;;;;;9.00;2.85;;;;;;;;;;4946800;28;20138;-82
2022/04/06 04:03:07;;;;;;;9.20;2.80;;;;;;;;;;4944679;28;20143;-80
2022/04/06 04:05:33;;;;;;;10.60;3.08;;;;;;;;;;4944044;28;20037;-81
2022/04/06 04:07:58;;;;;;;10.38;2.80;;;;;;;;;;4945445;28;20103;-81
2022/04/06 04:10:24;;;;;;;8.85;2.20;;;;;;;;;;4941733;28;20041;-81
2022/04/06 04:12:49;;;;;;;9.52;3.40;;;;;;;;;;4946686;28;20030;-81
2022/04/06 04:15:14;;;;;;;7.00;2.70;;;;;;;;;;4944411;28;20031;-82
2022/04/06 04:17:40;;;;;;;8.85;2.65;;;;;;;;;;4946909;28;20031;-82
2022/04/06 04:20:06;;;;;;;6.82;2.47;;;;;;;;;;4946014;28;20035;-81
2022/04/06 04:22:31;;;;;;;9.02;2.97;;;;;;;;;;4943613;28;20034;-80
2022/04/06 04:24:57;;;;;;;11.23;2.63;;;;;;;;;;4943905;28;20035;-82
2022/04/06 04:27:22;;;;;;;8.77;2.72;;;;;;;;;;4946210;28;20035;-82
2022/04/06 04:29:48;;;;;;;8.23;2.78;;;;;;;;;;4942450;28;20035;-80
2022/04/06 04:32:15;;;;;;;8.02;2.70;;;;;;;;;;4940504;28;20027;-81
2022/04/06 04:34:40;;;;;;;8.18;2.75;;;;;;;;;;4941914;28;20523;-81
2022/04/06 04:37:06;;;;;;;10.68;3.38;;;;;;;;;;4946865;28;20039;-80
2022/04/06 04:39:31;;;;;;;9.50;2.90;;;;;;;;;;4946626;28;20125;-80
2022/04/06 04:41:57;;;;;;;7.90;2.47;;;;;;;;;;4945880;28;20035;-82
2022/04/06 04:44:22;;;;;;;10.27;2.92;;;;;;;;;;4945022;28;20480;-80
2022/04/06 04:46:48;;;;;;;10.73;2.95;;;;;;;;;;4943965;28;20495;-81
2022/04/06 04:49:13;;;;;;;9.13;3.00;;;;;;;;;;4945393;29;20062;-80
2022/04/06 04:51:38;;;;;;;8.55;2.80;;;;;;;;;;4949009;28;20031;-82
2022/04/06 04:54:04;;;;;;;6.47;2.70;;;;;;;;;;4944538;28;20077;-81
2022/04/06 04:56:32;;;;;;;9.60;2.83;;;;;;;;;;4944027;28;20034;-81
2022/04/06 04:58:58;;;;;;;12.50;2.85;;;;;;;;;;4944027;28;20097;-81
2022/04/06 05:01:24;;;;;;;8.73;2.45;;;;;;;;;;4944883;28;20038;-79
2022/04/06 05:03:50;;;;;;;8.15;2.58;;;;;;;;;;4943672;28;20035;-80
2022/04/06 05:06:15;;;;;;;8.88;2.53;;;;;;;;;;4941861;28;20035;-80
2022/04/06 05:08:40;;;;;;;10.02;2.65;;;;;;;;;;4944534;28;20065;-80
2022/04/06 05:11:06;;;;;;;8.98;2.95;;;;;;;;;;4946761;28;20435;-81
2022/04/06 05:13:31;;;;;;;7.13;2.35;;;;;;;;;;4944732;28;20035;-82
2022/04/06 05:15:57;;;;;;;8.23;2.90;;;;;;;;;;4944908;28;20023;-82
2022/04/06 05:18:23;;;;;;;11.52;3.13;;;;;;;;;;4946888;28;20031;-81
2022/04/06 05:20:49;;;;;;;8.77;3.00;;;;;;;;;;4945880;28;20139;-81
2022/04/06 05:23:15;;;;;;;11.45;3.00;;;;;;;;;;4944467;28;20031;-80
2022/04/06 05:25:41;;;;;;;10.52;3.33;;;;;;;;;;4943305;28;20031;-80
2022/04/06 05:28:06;;;;;;;7.53;3.20;;;;;;;;;;4947753;28;20038;-80
2022/04/06 05:30:33;;;;;;;10.73;3.15;;;;;;;;;;4944198;28;20039;-80
2022/04/06 05:32:59;;;;;;;8.27;3.58;;;;;;;;;;4944211;28;20035;-80
2022/04/06 05:35:26;;;;;;;9.63;3.70;;;;;;;;;;4955900;28;20027;-80
2022/04/06 05:37:55;;;;;;;11.25;3.47;;;;;;;;;;4941652;28;20035;-80
2022/04/06 05:40:21;;;;;;;13.40;3.95;;;;;;;;;;4960454;28;20522;-80
2022/04/06 05:42:47;;;;;;;10.88;4.30;;;;;;;;;;4947705;28;20126;-80
2022/04/06 05:45:13;;;;;;;10.82;3.63;;;;;;;;;;4941011;28;20035;-82
2022/04/06 05:47:39;;;;;;;11.77;3.92;;;;;;;;;;4946808;28;20035;-81
2022/04/06 05:50:06;;;;;;;11.95;4.00;;;;;;;;;;4976727;28;20031;-80
2022/04/06 05:52:31;;;;;;;15.25;4.40;;;;;;;;;;4945003;28;20039;-81
2022/04/06 05:54:56;;;;;;;15.50;4.30;;;;;;;;;;4945614;28;20054;-82
2022/04/06 05:57:22;;;;;;;9.77;3.63;;;;;;;;;;4946275;28;20023;-82
2022/04/06 05:59:47;;;;;;;12.93;4.28;;;;;;;;;;4947218;28;20027;-80
2022/04/06 06:02:14;;;;;;;15.20;4.22;;;;;;;;;;4944064;28;20113;-81
2022/04/06 06:04:40;;;;;;;14.32;4.30;;;;;;;;;;4945949;28;20038;-82
2022/04/06 06:07:06;;;;;;;13.00;4.07;;;;;;;;;;4945774;28;20027;-79
2022/04/06 06:09:32;;;;;;;13.70;3.80;;;;;;;;;;4946631;28;20517;-79
2022/04/06 06:11:58;;;;;;;8.48;3.75;;;;;;;;;;4950329;28;20027;-80
2022/04/06 06:14:23;;;;;;;15.90;4.22;;;;;;;;;;4948295;28;20027;-80
2022/04/06 06:16:49;;;;;;;13.43;3.67;;;;;;;;;;4949327;28;20015;-80
2022/04/06 06:19:15;;;;;;;12.13;3.25;;;;;;;;;;4949520;28;20031;-80
2022/04/06 06:21:40;;;;;;;15.32;4.30;;;;;;;;;;4944360;28;20094;-81
2022/04/06 06:24:06;;;;;;;11.60;3.67;;;;;;;;;;4947117;28;20112;-82
2022/04/06 06:26:36;;;;;;;8.27;3.13;;;;;;;;;;4953226;28;20111;-81
2022/04/06 06:29:03;;;;;;;12.68;3.45;;;;;;;;;;4948860;28;20078;-81
2022/04/06 06:31:29;;;;;;;11.13;2.90;;;;;;;;;;4955017;28;20059;-79
2022/04/06 06:33:56;;;;;;;8.07;2.70;;;;;;;;;;4949856;28;20558;-81
2022/04/06 06:36:23;;;;;;;9.48;2.75;;;;;;;;;;4951739;28;20020;-80
2022/04/06 06:38:49;;;;;;;9.48;2.53;;;;;;;;;;4954934;28;20034;-80
2022/04/06 06:41:15;;;;;;;8.52;2.30;;;;;;;;;;4950936;28;20027;-81
2022/04/06 06:43:40;;;;;;;8.25;2.38;;;;;;;;;;4950236;28;20038;-81
2022/04/06 06:46:06;;;;;;;8.60;2.50;;;;;;;;;;4949920;28;20035;-80
2022/04/06 06:48:31;;;;;;;7.05;2.38;;;;;;;;;;4949031;28;20042;-81
2022/04/06 06:50:56;;;;;;;14.30;2.63;;;;;;;;;;4950206;28;20043;-80
2022/04/06 06:53:21;;;;;;;6.97;2.30;;;;;;;;;;4972361;28;20041;-80
2022/04/06 06:55:47;;;;;;;7.10;1.98;;;;;;;;;;4950430;28;20026;-80
2022/04/06 06:58:12;;;;;;;4.03;1.60;;;;;;;;;;4953178;28;20090;-81
2022/04/06 07:00:37;;;;;;;6.15;2.05;;;;;;;;;;4951914;28;20379;-81
2022/04/06 07:03:03;;;;;;;6.35;1.70;;;;;;;;;;4952993;28;20562;-80
2022/04/06 07:05:28;;;;;;;5.07;1.65;;;;;;;;;;4954290;28;20023;-79
2022/04/06 07:07:56;;;;;;;6.93;1.90;;;;;;;;;;4953937;28;20031;-81
2022/04/06 07:10:23;;;;;;;8.93;2.05;;;;;;;;;;4955234;28;20464;-80
2022/04/06 07:12:48;;;;;;;6.13;1.92;;;;;;;;;;4955573;28;20031;-79
2022/04/06 07:15:14;;;;;;;5.35;1.60;;;;;;;;;;4954618;28;20027;-80
2022/04/06 07:17:40;;;;;;;6.75;1.80;;;;;;;;;;4954517;28;20023;-81
2022/04/06 07:20:06;;;;;;;6.25;1.70;;;;;;;;;;4953273;28;20391;-79
2022/04/06 07:22:31;;;;;;;5.72;1.77;;;;;;;;;;4951523;28;20121;-80
2022/04/06 07:24:56;;;;;;;5.05;1.77;;;;;;;;;;4954036;28;20118;-80
2022/04/06 07:27:22;;;;;;;6.00;2.05;;;;;;;;;;4950284;28;20045;-81
2022/04/06 07:29:47;;;;;;;4.22;1.63;;;;;;;;;;4955583;28;20027;-80
2022/04/06 07:32:12;;;;;;;5.15;1.50;;;;;;;;;;4956447;28;20515;-80
2022/04/06 07:34:38;;;;;;;8.38;1.70;;;;;;;;;;4952837;28;20380;-79
2022/04/06 07:37:03;;;;;;;5.90;1.80;;;;;;;;;;4952633;28;20038;-79
2022/04/06 07:39:28;;;;;;;5.95;1.70;;;;;;;;;;4954661;28;20034;-79
2022/04/06 07:41:57;;;;;;;5.93;1.50;;;;;;;;;;4949404;28;20118;-81
2022/04/06 07:44:24;;;;;;;5.78;1.85;;;;;;;;;;4956741;28;20054;-80
2022/04/06 07:46:50;;;;;;;5.68;1.73;;;;;;;;;;4952317;28;20031;-80
2022/04/06 07:49:19;;;;;;;5.90;1.85;;;;;;;;;;4971547;28;20058;-81
2022/04/06 07:51:45;;;;;;;6.88;1.90;;;;;;;;;;4947692;28;20046;-79
2022/04/06 07:54:11;;;;;;;4.97;1.90;;;;;;;;;;4954975;28;20034;-81
2022/04/06 07:56:37;;;;;;;6.15;1.70;;;;;;;;;;4956178;28;20035;-80
2022/04/06 07:59:02;;;;;;;9.95;2.17;;;;;;;;;;4951819;28;20387;-80
2022/04/06 08:01:28;;;;;;;8.90;1.92;;;;;;;;;;4955392;28;20039;-80
2022/04/06 08:03:53;;;;;;;6.88;1.88;;;;;;;;;;4954345;28;20074;-80
2022/04/06 08:06:19;;;;;;;7.00;2.00;;;;;;;;;;4953625;28;20046;-81
2022/04/06 08:08:44;;;;;;;6.57;1.88;;;;;;;;;;4961492;28;20519;-81
2022/04/06 08:11:09;;;;;;;10.40;2.13;;;;;;;;;;4954617;28;20122;-79
2022/04/06 08:13:35;;;;;;;8.20;2.35;;;;;;;;;;4956311;28;20493;-80
2022/04/06 08:16:00;;;;;;;7.85;2.20;;;;;;;;;;4952037;28;20031;-81
2022/04/06 08:18:26;;;;;;;7.65;2.63;;;;;;;;;;4950327;28;20038;-80
2022/04/06 08:20:51;;;;;;;8.35;2.85;;;;;;;;;;4951641;28;20027;-81
2022/04/06 08:23:21;;;;;;;8.88;2.40;;;;;;;;;;4950010;28;20050;-81
2022/04/06 08:26:17;;;;;;;6.00;2.38;;;;;;;;;;4948293;28;20393;-80
2022/04/06 08:28:42;;;;;;;6.28;2.80;;;;;;;;;;4943121;28;20038;-80
2022/04/06 08:31:07;;;;;;;7.03;2.47;;;;;;;;;;4935262;28;20042;-80
2022/04/06 08:33:33;;;;;;;8.13;2.35;;;;;;;;;;4948012;28;20543;-81
2022/04/06 08:35:58;;;;;;;10.98;2.70;;;;;;;;;;4943330;28;20228;-81
2022/04/06 08:38:25;;;;;;;9.07;2.92;;;;;;;;;;4949754;28;20123;-81
2022/04/06 08:40:50;;;;;;;9.35;2.83;;;;;;;;;;4943515;28;20039;-80
2022/04/06 08:43:17;;;;;;;7.72;3.00;;;;;;;;;;4943230;28;20399;-81
2022/04/06 08:45:43;;;;;;;7.05;2.60;;;;;;;;;;4947558;28;20031;-81
2022/04/06 08:48:17;;;;;;;10.05;2.92;;;;;;;;;;4942034;28;20046;-81
2022/04/06 08:50:45;;;;;;;6.20;2.88;;;;;;;;;;4946847;28;20019;-81
2022/04/06 08:53:12;;;;;;;6.65;2.95;;;;;;;;;;4948442;28;20399;-80
2022/04/06 08:55:43;;;;;;;11.52;3.00;;;;;;;;;;4937532;28;20463;-80
2022/04/06 08:58:08;;;;;;;8.70;3.03;;;;;;;;;;4939296;28;20086;-81
2022/04/06 09:00:34;;;;;;;7.32;3.17;;;;;;;;;;4943204;28;20105;-80
2022/04/06 09:03:00;;;;;;;8.65;3.17;;;;;;;;;;4945266;28;20340;-81
2022/04/06 09:05:28;;;;;;;8.70;3.03;;;;;;;;;;4949536;28;20441;-79
2022/04/06 09:07:54;;;;;;;9.27;3.00;;;;;;;;;;4953921;29;20019;-79
2022/04/06 09:10:37;;;;;;;10.82;3.00;;;;;;;;;;4952475;28;20039;-80
2022/04/06 09:13:15;;;;;;;7.80;2.85;;;;;;;;;;4948937;28;20039;-79
2022/04/06 09:15:42;;;;;;;12.73;3.67;;;;;;;;;;4951316;28;20090;-80
2022/04/06 09:18:07;;;;;;;6.57;2.95;;;;;;;;;;4950319;28;20026;-80
2022/04/06 09:20:33;;;;;;;7.07;3.63;;;;;;;;;;4953246;28;20427;-81
2022/04/06 09:23:01;;;;;;;10.60;3.20;;;;;;;;;;4952403;28;20067;-80
2022/04/06 09:25:33;;;;;;;5.80;2.90;;;;;;;;;;4950804;28;20027;-80
2022/04/06 09:28:05;;;;;;;6.68;3.17;;;;;;;;;;4952834;28;20467;-81
2022/04/06 09:30:34;;;;;;;8.13;3.33;;;;;;;;;;4947247;28;20043;-81
2022/04/06 09:33:03;;;;;;;7.72;3.40;;;;;;;;;;4948088;28;20276;-79
2022/04/06 09:35:31;;;;;;;9.55;3.40;;;;;;;;;;4954277;28;20492;-79
2022/04/06 09:38:23;;;;;;;6.93;3.50;;;;;;;;;;4951985;28;20123;-79
2022/04/06 09:41:14;;;;;;;8.73;3.35;;;;;;;;;;4948654;28;20444;-80
2022/04/06 09:43:40;;;;;;;7.85;3.20;;;;;;;;;;4952054;28;20074;-80
2022/04/06 09:49:09;;;;;;;6.95;3.05;;;;;;;;;;4943715;28;20099;-79
2022/04/06 09:51:36;;;;;;;9.38;3.70;;;;;;;;;;4949404;28;20042;-81
2022/04/06 09:54:07;;;;;;;10.15;3.20;;;;;;;;;;4946936;28;20498;-79
2022/04/06 09:56:36;;;;;;;9.80;3.40;;;;;;;;;;4950684;28;20027;-81
2022/04/06 09:59:03;;;;;;;8.90;2.95;;;;;;;;;;4948864;28;20038;-81
2022/04/06 10:01:34;;;;;;;10.65;3.97;;;;;;;;;;4980005;28;20505;-81
2022/04/06 10:04:05;;;;;;;6.53;3.35;;;;;;;;;;4948262;28;20413;-80
2022/04/06 10:06:35;;;;;;;11.60;3.20;;;;;;;;;;4946011;28;20066;-81
2022/04/06 10:09:06;;;;;;;11.32;4.28;;;;;;;;;;4949560;28;20488;-81
2022/04/06 10:11:33;;;;;;;6.43;3.35;;;;;;;;;;4950021;28;20035;-79
2022/04/06 10:14:00;;;;;;;8.60;4.00;;;;;;;;;;4948994;28;20027;-79
2022/04/06 10:16:26;;;;;;;9.82;3.53;;;;;;;;;;4963893;28;20027;-80
2022/04/06 10:18:54;;;;;;;9.52;4.22;;;;;;;;;;4953544;28;20050;-80
2022/04/06 10:21:38;;;;;;;11.68;3.83;;;;;;;;;;4953331;28;20515;-79
2022/04/06 10:24:41;;;;;;;9.07;3.80;;;;;;;;;;4951842;28;20115;-81
2022/04/06 10:27:06;;;;;;;11.10;4.00;;;;;;;;;;4965298;28;20035;-81
2022/04/06 10:29:32;;;;;;;7.85;3.88;;;;;;;;;;4950156;28;20031;-81
2022/04/06 10:31:57;;;;;;;10.30;4.15;;;;;;;;;;4948634;28;20311;-80
2022/04/06 10:34:33;;;;;;;8.57;4.20;;;;;;;;;;4979119;28;20130;-80
2022/04/06 10:37:07;;;;;;;8.60;4.20;;;;;;;;;;4950994;28;20577;-81
2022/04/06 10:39:51;;;;;;;9.07;4.40;;;;;;;;;;4947709;28;20027;-80
2022/04/06 10:42:33;;;;;;;9.63;4.07;;;;;;;;;;4950513;28;20118;-80
2022/04/06 10:44:59;;;;;;;8.13;4.13;;;;;;;;;;4950647;28;20541;-82
2022/04/06 10:47:25;;;;;;;10.25;4.38;;;;;;;;;;4951187;28;20026;-81
2022/04/06 10:50:21;;;;;;;8.55;4.38;;;;;;;;;;4950267;28;20082;-79
2022/04/06 10:52:47;;;;;;;7.20;4.22;;;;;;;;;;4946258;28;20063;-80
2022/04/06 10:55:22;;;;;;;8.05;4.30;;;;;;;;;;4941292;28;20060;-82
2022/04/06 10:58:03;;;;;;;10.90;4.70;;;;;;;;;;4952638;28;20543;-81
2022/04/06 11:14:28;;;;;;;9.27;3.97;;;;;;;;;;5038310;23;20119;-81
2022/04/06 11:24:33;;;;;;;8.40;4.25;;;;;;;;;;5298746;23;20523;-92
2022/04/06 11:26:58;;;;;;;8.85;4.00;;;;;;;;;;4901908;29;20032;-83
2022/04/06 11:29:28;;;;;;;8.02;4.00;;;;;;;;;;4892364;29;20033;-79
2022/04/06 11:52:27;;;;;;;;;;;;;;;;;;4914472;29;20475;-84
2022/04/06 11:54:55;;;;;;;8.37;3.90;;;;;;;;;;4911351;29;20010;-80
2022/04/06 11:57:48;;;;;;;8.73;3.67;;;;;;;;;;4796345;29;21119;-81
2022/04/06 12:00:16;;;;;;;6.78;3.33;;;;;;;;;;4906685;29;20476;-77
2022/04/06 12:02:58;;;;;;;6.53;3.58;;;;;;;;;;4899102;29;20122;-83
2022/04/06 12:05:24;;;;;;;5.88;3.55;;;;;;;;;;4907337;29;20036;-82
2022/04/06 12:08:12;;;;;;;7.78;3.70;;;;;;;;;;4893781;29;20032;-80
2022/04/06 12:10:48;;;;;;;8.63;3.78;;;;;;;;;;4910078;29;20048;-82
2022/04/06 12:13:13;;;;;;;7.97;3.78;;;;;;;;;;4907058;29;20035;-78
2022/04/06 12:15:40;;;;;;;6.43;3.50;;;;;;;;;;4908432;29;20495;-83
2022/04/06 12:18:06;;;;;;;8.55;3.95;;;;;;;;;;4905428;29;20523;-81
2022/04/06 12:20:31;;;;;;;9.35;3.42;;;;;;;;;;4907406;29;20059;-84
2022/04/06 12:23:08;;;;;;;13.25;4.03;;;;;;;;;;4909658;29;20399;-80
2022/04/06 12:25:35;;;;;;;8.73;3.28;;;;;;;;;;4905862;29;20441;-81
2022/04/06 12:28:27;;;;;;;6.10;3.03;;;;;;;;;;4906673;29;20032;-80
2022/04/06 12:31:04;;;;;;;7.63;3.00;;;;;;;;;;4921805;29;20040;-82
2022/04/06 12:33:38;;;;;;;9.00;3.05;;;;;;;;;;4909414;29;20063;-78
2022/04/06 12:36:04;;;;;;;;;;;;;;;;;;4921444;29;20052;-83
2022/04/06 12:38:29;;;;;;;8.57;3.40;;;;;;;;;;4908603;29;20267;-78
2022/04/06 12:41:13;;;;;;;5.35;3.20;;;;;;;;;;5061996;28;20408;-79
2022/04/06 12:43:45;;;;;;;5.65;3.30;;;;;;;;;;5040931;28;20029;-81
2022/04/06 12:46:12;;;;;;;8.88;3.72;;;;;;;;;;5040447;28;20036;-78
2022/04/06 12:48:37;;;;;;;7.45;3.72;;;;;;;;;;5041489;28;20025;-79
2022/04/06 12:51:21;;;;;;;5.95;3.65;;;;;;;;;;5036963;28;20116;-77
2022/04/06 12:53:50;;;;;;;7.47;4.03;;;;;;;;;;5040387;28;20045;-81
2022/04/06 12:56:24;;;;;;;7.78;4.05;;;;;;;;;;5042490;28;20032;-81
2022/04/06 12:59:09;;;;;;;8.02;4.28;;;;;;;;;;5043379;28;20053;-81
2022/04/06 13:01:45;;;;;;;7.90;3.88;;;;;;;;;;5035049;28;20041;-81
2022/04/06 13:04:10;;;;;;;8.52;4.20;;;;;;;;;;5037877;28;20017;-80
2022/04/06 13:06:35;;;;;;;9.30;3.85;;;;;;;;;;5039406;28;20487;-81
2022/04/06 13:09:01;;;;;;;9.30;4.60;;;;;;;;;;5040655;28;20029;-79
2022/04/06 13:11:26;;;;;;;8.60;4.45;;;;;;;;;;5041527;28;20124;-80
2022/04/06 13:13:51;;;;;;;7.15;3.47;;;;;;;;;;5038286;28;20036;-78
2022/04/06 13:16:17;;;;;;;7.53;4.22;;;;;;;;;;5037344;28;20100;-80
2022/04/06 13:18:44;;;;;;;6.10;4.13;;;;;;;;;;5042483;28;20032;-82
2022/04/06 13:21:11;;;;;;;7.57;3.80;;;;;;;;;;5041120;28;20068;-79
2022/04/06 13:23:37;;;;;;;6.55;4.25;;;;;;;;;;5041288;28;20025;-82
2022/04/06 13:26:03;;;;;;;5.38;3.55;;;;;;;;;;5042619;28;20460;-82
2022/04/06 13:28:28;;;;;;;7.53;3.83;;;;;;;;;;5037414;28;20541;-79
2022/04/06 13:30:54;;;;;;;9.02;4.60;;;;;;;;;;5040801;28;20033;-81
2022/04/06 13:33:20;;;;;;;11.65;4.80;;;;;;;;;;5042405;28;20512;-82
2022/04/06 13:35:49;;;;;;;6.72;4.07;;;;;;;;;;5041158;28;20025;-77
2022/04/06 13:38:14;;;;;;;7.40;4.47;;;;;;;;;;5040167;28;20029;-78
2022/04/06 13:40:39;;;;;;;6.75;4.53;;;;;;;;;;5040186;28;20056;-78
2022/04/06 13:43:05;;;;;;;7.32;4.18;;;;;;;;;;5040370;28;20021;-78
2022/04/06 13:45:30;;;;;;;6.40;4.35;;;;;;;;;;5038699;28;20504;-80
2022/04/06 13:47:56;;;;;;;7.03;4.10;;;;;;;;;;5035692;28;20044;-81
2022/04/06 13:50:22;;;;;;;5.72;3.90;;;;;;;;;;5030288;28;20024;-81
2022/04/06 13:52:48;;;;;;;6.40;4.30;;;;;;;;;;5024179;28;20029;-82
2022/04/06 13:55:17;;;;;;;5.78;3.85;;;;;;;;;;5023366;28;20492;-80
2022/04/06 13:57:42;;;;;;;6.75;4.28;;;;;;;;;;5021016;28;20061;-79
2022/04/06 14:00:09;;;;;;;7.45;4.20;;;;;;;;;;5022728;28;20476;-80
2022/04/06 14:02:34;;;;;;;6.93;3.65;;;;;;;;;;5027195;28;20025;-79
2022/04/06 14:05:01;;;;;;;5.28;3.60;;;;;;;;;;5027423;28;20550;-81
2022/04/06 14:07:27;;;;;;;6.72;3.90;;;;;;;;;;5023254;28;20120;-82
2022/04/06 14:09:52;;;;;;;8.18;4.40;;;;;;;;;;5022832;28;20108;-81
2022/04/06 14:12:17;;;;;;;6.57;3.92;;;;;;;;;;5021940;28;20026;-80
2022/04/06 14:14:42;;;;;;;8.15;3.60;;;;;;;;;;5025138;28;20021;-79
2022/04/06 14:17:11;;;;;;;7.28;3.90;;;;;;;;;;5025408;28;20484;-80
2022/04/06 14:19:37;;;;;;;7.38;4.13;;;;;;;;;;5026491;28;20123;-80
2022/04/06 14:22:02;;;;;;;6.22;3.75;;;;;;;;;;5003321;28;20064;-84
2022/04/06 14:24:27;;;;;;;5.88;4.03;;;;;;;;;;5023100;28;20021;-83
2022/04/06 14:26:53;;;;;;;5.30;3.83;;;;;;;;;;5024064;28;20030;-83
2022/04/06 14:29:18;;;;;;;7.15;4.10;;;;;;;;;;5021327;28;20017;-82
2022/04/06 14:31:43;;;;;;;6.15;4.00;;;;;;;;;;5022416;28;20033;-79
2022/04/06 14:34:09;;;;;;;7.63;4.20;;;;;;;;;;5024453;28;20021;-79
2022/04/06 14:36:35;;;;;;;7.32;4.43;;;;;;;;;;5023010;28;20116;-78
2022/04/06 14:39:00;;;;;;;7.00;3.95;;;;;;;;;;5025836;28;20057;-79
2022/04/06 14:41:26;;;;;;;5.75;4.03;;;;;;;;;;5023401;28;20025;-79
2022/04/06 14:43:51;;;;;;;6.05;3.97;;;;;;;;;;5022328;28;20138;-82
2022/04/06 14:46:16;;;;;;;4.60;3.78;;;;;;;;;;5020028;28;20025;-83
2022/04/06 14:48:42;;;;;;;6.65;3.83;;;;;;;;;;5020355;28;20469;-80
2022/04/06 14:51:09;;;;;;;5.85;3.55;;;;;;;;;;5021719;28;20533;-83
2022/04/06 14:53:35;;;;;;;4.78;3.70;;;;;;;;;;5025612;28;20124;-84
2022/04/06 14:56:00;;;;;;;7.43;3.70;;;;;;;;;;5025270;28;20113;-84
2022/04/06 14:58:25;;;;;;;6.53;3.58;;;;;;;;;;5022181;28;20062;-84
2022/04/06 15:00:51;;;;;;;5.78;4.07;;;;;;;;;;5020607;28;20033;-80
2022/04/06 15:03:16;;;;;;;6.65;3.75;;;;;;;;;;5018449;28;20033;-84
2022/04/06 15:05:42;;;;;;;8.30;4.10;;;;;;;;;;5020326;28;20060;-83
2022/04/06 15:08:09;;;;;;;7.05;3.63;;;;;;;;;;5023463;28;20439;-79
2022/04/06 15:10:37;;;;;;;6.60;3.97;;;;;;;;;;5020646;28;20072;-81
2022/04/06 15:13:02;;;;;;;11.27;4.10;;;;;;;;;;5019926;28;20519;-82
2022/04/06 15:15:28;;;;;;;6.32;4.07;;;;;;;;;;5019515;28;20034;-80
2022/04/06 15:17:56;;;;;;;5.82;3.90;;;;;;;;;;5017503;28;20079;-78
2022/04/06 15:20:22;;;;;;;7.40;4.30;;;;;;;;;;5022122;28;20032;-81
2022/04/06 15:22:47;;;;;;;7.20;4.28;;;;;;;;;;5019652;28;20033;-81
2022/04/06 15:25:12;;;;;;;8.07;4.15;;;;;;;;;;5013777;28;20515;-81
2022/04/06 15:27:38;;;;;;;6.38;4.00;;;;;;;;;;5012310;28;20033;-80
2022/04/06 15:30:04;;;;;;;7.60;4.40;;;;;;;;;;5015944;28;20037;-81